sensor_id;sensor_type;location;lat;lon;timestamp;P1;durP1;ratioP1;P2;durP2;ratioP2
81365;SDS011;70822;51.990;22.766;2024-01-27T00:10:42;16.00;;;8.73;;
81365;SDS011;70822;51.990;22.766;2024-01-27T00:25:49;14.67;;;7.83;;
81365;SDS011;70822;51.990;22.766;2024-01-27T00:40:55;20.07;;;9.10;;
81365;SDS011;70822;51.990;22.766;2024-01-27T00:55:59;18.53;;;8.63;;
81365;SDS011;70822;51.990;22.766;2024-01-27T01:11:06;17.03;;;8.83;;
81365;SDS011;70822;51.990;22.766;2024-01-27T01:26:10;16.27;;;8.30;;
81365;SDS011;70822;51.990;22.766;2024-01-27T01:41:15;16.63;;;8.03;;
81365;SDS011;70822;51.990;22.766;2024-01-27T01:56:20;15.37;;;6.87;;
81365;SDS011;70822;51.990;22.766;2024-01-27T02:11:25;10.37;;;5.30;;
81365;SDS011;70822;51.990;22.766;2024-01-27T02:26:30;8.33;;;4.60;;
81365;SDS011;70822;51.990;22.766;2024-01-27T02:41:35;9.00;;;4.73;;
81365;SDS011;70822;51.990;22.766;2024-01-27T02:56:43;5.47;;;3.53;;
81365;SDS011;70822;51.990;22.766;2024-01-27T03:11:48;6.37;;;1.60;;
81365;SDS011;70822;51.990;22.766;2024-01-27T03:27:00;1.60;;;1.30;;
81365;SDS011;70822;51.990;22.766;2024-01-27T03:57:09;0.97;;;0.57;;
81365;SDS011;70822;51.990;22.766;2024-01-27T04:12:14;4.57;;;1.03;;
81365;SDS011;70822;51.990;22.766;2024-01-27T04:27:19;1.37;;;0.63;;
81365;SDS011;70822;51.990;22.766;2024-01-27T04:42:25;3.27;;;0.93;;
81365;SDS011;70822;51.990;22.766;2024-01-27T04:57:29;4.23;;;1.40;;
81365;SDS011;70822;51.990;22.766;2024-01-27T05:12:35;5.60;;;1.60;;
81365;SDS011;70822;51.990;22.766;2024-01-27T05:27:40;4.23;;;1.27;;
81365;SDS011;70822;51.990;22.766;2024-01-27T05:42:45;7.27;;;1.63;;
81365;SDS011;70822;51.990;22.766;2024-01-27T05:57:49;3.23;;;2.00;;
81365;SDS011;70822;51.990;22.766;2024-01-27T06:12:54;2.17;;;1.53;;
81365;SDS011;70822;51.990;22.766;2024-01-27T06:27:59;4.63;;;2.03;;
81365;SDS011;70822;51.990;22.766;2024-01-27T06:43:03;4.30;;;1.60;;
81365;SDS011;70822;51.990;22.766;2024-01-27T06:58:08;5.93;;;2.23;;
81365;SDS011;70822;51.990;22.766;2024-01-27T07:13:13;6.80;;;2.97;;
81365;SDS011;70822;51.990;22.766;2024-01-27T07:28:19;9.93;;;2.87;;
81365;SDS011;70822;51.990;22.766;2024-01-27T07:43:25;3.17;;;1.73;;
81365;SDS011;70822;51.990;22.766;2024-01-27T07:58:31;5.43;;;1.87;;
81365;SDS011;70822;51.990;22.766;2024-01-27T08:13:35;8.70;;;2.37;;
81365;SDS011;70822;51.990;22.766;2024-01-27T08:28:41;5.10;;;1.17;;
81365;SDS011;70822;51.990;22.766;2024-01-27T08:43:49;2.93;;;1.23;;
81365;SDS011;70822;51.990;22.766;2024-01-27T08:58:56;8.80;;;1.93;;
81365;SDS011;70822;51.990;22.766;2024-01-27T09:14:01;10.20;;;1.97;;
81365;SDS011;70822;51.990;22.766;2024-01-27T09:29:08;3.00;;;1.30;;
81365;SDS011;70822;51.990;22.766;2024-01-27T09:44:14;6.73;;;2.23;;
81365;SDS011;70822;51.990;22.766;2024-01-27T09:59:23;4.13;;;1.57;;
81365;SDS011;70822;51.990;22.766;2024-01-27T10:14:39;4.90;;;2.10;;
81365;SDS011;70822;51.990;22.766;2024-01-27T10:29:52;4.77;;;2.33;;
81365;SDS011;70822;51.990;22.766;2024-01-27T10:44:58;5.00;;;2.07;;
81365;SDS011;70822;51.990;22.766;2024-01-27T11:00:08;6.00;;;2.73;;
81365;SDS011;70822;51.990;22.766;2024-01-27T11:15:15;6.43;;;2.53;;
81365;SDS011;70822;51.990;22.766;2024-01-27T11:30:27;6.93;;;3.23;;
81365;SDS011;70822;51.990;22.766;2024-01-27T11:45:33;4.47;;;3.10;;
81365;SDS011;70822;51.990;22.766;2024-01-27T12:00:38;4.73;;;2.50;;
81365;SDS011;70822;51.990;22.766;2024-01-27T12:15:44;3.90;;;2.03;;
81365;SDS011;70822;51.990;22.766;2024-01-27T12:30:49;5.70;;;3.03;;
81365;SDS011;70822;51.990;22.766;2024-01-27T12:45:55;4.43;;;2.53;;
81365;SDS011;70822;51.990;22.766;2024-01-27T13:01:00;7.07;;;3.53;;
81365;SDS011;70822;51.990;22.766;2024-01-27T13:16:05;5.83;;;3.07;;
81365;SDS011;70822;51.990;22.766;2024-01-27T13:31:10;8.17;;;3.40;;
81365;SDS011;70822;51.990;22.766;2024-01-27T13:46:16;9.47;;;3.17;;
81365;SDS011;70822;51.990;22.766;2024-01-27T14:01:21;6.50;;;2.90;;
81365;SDS011;70822;51.990;22.766;2024-01-27T14:16:26;6.20;;;2.70;;
81365;SDS011;70822;51.990;22.766;2024-01-27T14:31:33;7.53;;;3.30;;
81365;SDS011;70822;51.990;22.766;2024-01-27T14:46:38;7.63;;;3.03;;
81365;SDS011;70822;51.990;22.766;2024-01-27T15:01:44;4.50;;;2.77;;
81365;SDS011;70822;51.990;22.766;2024-01-27T15:16:50;7.27;;;4.13;;
81365;SDS011;70822;51.990;22.766;2024-01-27T15:31:56;7.50;;;3.27;;
81365;SDS011;70822;51.990;22.766;2024-01-27T16:02:06;5.43;;;2.43;;
81365;SDS011;70822;51.990;22.766;2024-01-27T16:17:11;4.47;;;2.37;;
81365;SDS011;70822;51.990;22.766;2024-01-27T16:47:22;6.47;;;2.40;;
81365;SDS011;70822;51.990;22.766;2024-01-27T17:02:27;4.93;;;2.67;;
81365;SDS011;70822;51.990;22.766;2024-01-27T17:17:32;4.77;;;3.23;;
81365;SDS011;70822;51.990;22.766;2024-01-27T17:32:37;7.70;;;4.27;;
81365;SDS011;70822;51.990;22.766;2024-01-27T17:47:46;9.37;;;4.40;;
81365;SDS011;70822;51.990;22.766;2024-01-27T18:02:58;6.87;;;4.43;;
81365;SDS011;70822;51.990;22.766;2024-01-27T18:18:03;4.90;;;2.47;;
81365;SDS011;70822;51.990;22.766;2024-01-27T18:33:09;3.47;;;2.47;;
81365;SDS011;70822;51.990;22.766;2024-01-27T19:03:18;4.43;;;2.27;;
81365;SDS011;70822;51.990;22.766;2024-01-27T19:18:24;1.47;;;1.33;;
81365;SDS011;70822;51.990;22.766;2024-01-27T19:33:28;2.97;;;2.10;;
81365;SDS011;70822;51.990;22.766;2024-01-27T19:48:34;3.63;;;2.33;;
81365;SDS011;70822;51.990;22.766;2024-01-27T20:03:38;5.17;;;2.90;;
81365;SDS011;70822;51.990;22.766;2024-01-27T20:18:44;4.00;;;2.90;;
81365;SDS011;70822;51.990;22.766;2024-01-27T20:33:49;6.20;;;2.50;;
81365;SDS011;70822;51.990;22.766;2024-01-27T20:48:54;2.83;;;1.97;;
81365;SDS011;70822;51.990;22.766;2024-01-27T21:03:59;3.43;;;2.20;;
81365;SDS011;70822;51.990;22.766;2024-01-27T21:19:04;4.70;;;2.67;;
81365;SDS011;70822;51.990;22.766;2024-01-27T21:34:09;3.03;;;2.47;;
81365;SDS011;70822;51.990;22.766;2024-01-27T21:49:14;3.63;;;2.50;;
81365;SDS011;70822;51.990;22.766;2024-01-27T22:04:19;3.10;;;2.17;;
81365;SDS011;70822;51.990;22.766;2024-01-27T22:19:24;3.23;;;2.43;;
81365;SDS011;70822;51.990;22.766;2024-01-27T22:34:29;3.07;;;2.57;;
81365;SDS011;70822;51.990;22.766;2024-01-27T22:49:34;3.80;;;2.23;;
81365;SDS011;70822;51.990;22.766;2024-01-27T23:04:39;3.43;;;1.87;;
81365;SDS011;70822;51.990;22.766;2024-01-27T23:19:46;4.30;;;1.57;;
81365;SDS011;70822;51.990;22.766;2024-01-27T23:34:51;3.07;;;1.80;;
81365;SDS011;70822;51.990;22.766;2024-01-27T23:49:55;2.07;;;1.63;;
